Time;durP1;ratioP1;P1;durP2;ratioP2;P2;SDS_P1;SDS_P2;PMS_P1;PMS_P2;Temp;Humidity;BMP_temperature;BMP_pressure;BME280_temperature;BME280_humidity;BME280_pressure;Samples;Min_cycle;Max_cycle;Signal;HPM_P1;HPM_P2
2022/10/28 00:01:42;;;;;;;36.63;12.13;;;;;;;10.07;100.00;100016.81;4998263;28;20042;-52
2022/10/28 00:04:26;;;;;;;94.78;16.27;;;;;;;10.10;100.00;100016.69;4989397;28;20049;-47
2022/10/28 00:07:11;;;;;;;82.85;15.35;;;;;;;10.33;100.00;100020.81;4992012;28;20042;-48
2022/10/28 00:09:56;;;;;;;40.50;12.82;;;;;;;10.29;100.00;100015.78;4975380;28;20046;-51
2022/10/28 00:12:41;;;;;;;71.55;14.05;;;;;;;10.34;100.00;100011.19;4997649;28;20751;-49
2022/10/28 00:15:25;;;;;;;50.47;12.85;;;;;;;10.15;100.00;100013.84;4978799;28;20488;-48
2022/10/28 00:18:10;;;;;;;25.42;12.00;;;;;;;10.40;100.00;100013.50;4975697;28;20480;-46
2022/10/28 00:21:00;;;;;;;44.05;12.18;;;;;;;10.40;100.00;100015.28;4994046;28;20048;-46
2022/10/28 00:23:45;;;;;;;29.10;13.73;;;;;;;10.21;100.00;100013.56;4993994;28;20043;-53
2022/10/28 00:26:31;;;;;;;28.02;12.30;;;;;;;10.29;100.00;100007.94;4993316;28;22087;-45
2022/10/28 00:29:18;;;;;;;42.05;13.70;;;;;;;10.25;100.00;100007.22;4971166;28;20061;-46
2022/10/28 00:32:02;;;;;;;80.93;15.23;;;;;;;10.16;100.00;100003.28;4988487;28;20124;-49
2022/10/28 00:34:47;;;;;;;55.45;12.95;;;;;;;10.17;100.00;100004.13;4982249;28;20039;-49
2022/10/28 00:37:32;;;;;;;72.57;14.68;;;;;;;10.19;100.00;100004.91;4984877;28;20050;-47
2022/10/28 00:40:16;;;;;;;37.85;12.45;;;;;;;10.15;100.00;100001.56;4990103;28;20561;-47
2022/10/28 00:43:01;;;;;;;42.10;12.90;;;;;;;10.15;100.00;100006.81;4991625;28;20490;-47
2022/10/28 00:45:45;;;;;;;39.08;12.38;;;;;;;10.38;100.00;99998.81;4976152;28;20150;-46
2022/10/28 00:48:30;;;;;;;43.30;13.82;;;;;;;10.17;100.00;100001.50;4989027;28;20597;-50
2022/10/28 00:51:18;;;;;;;40.78;12.85;;;;;;;10.61;100.00;100008.19;4992188;28;20074;-47
2022/10/28 00:54:04;;;;;;;35.50;12.50;;;;;;;10.37;100.00;99999.72;4992188;28;20114;-48
2022/10/28 00:56:52;;;;;;;59.28;13.80;;;;;;;10.58;100.00;99997.84;4989293;28;20046;-50
2022/10/28 00:59:42;;;;;;;56.22;13.63;;;;;;;10.35;100.00;100005.03;4973343;28;20084;-47
2022/10/28 01:02:27;;;;;;;35.42;12.80;;;;;;;10.41;100.00;100001.28;4995721;28;20760;-46
2022/10/28 01:05:15;;;;;;;32.30;12.95;;;;;;;10.49;100.00;99996.53;4966907;28;20462;-50
2022/10/28 01:08:02;;;;;;;71.95;14.57;;;;;;;10.44;100.00;99994.13;4991110;28;20042;-46
2022/10/28 01:10:52;;;;;;;62.38;14.50;;;;;;;10.30;100.00;99994.78;4975960;28;20625;-48
2022/10/28 01:13:37;;;;;;;60.60;12.98;;;;;;;10.26;100.00;99981.91;4992434;28;20046;-48
2022/10/28 01:16:36;;;;;;;71.28;14.57;;;;;;;10.42;100.00;99982.00;4991790;28;20476;-48
2022/10/28 01:19:39;;;;;;;47.35;13.93;;;;;;;10.49;100.00;99975.59;4996272;28;20046;-51
2022/10/28 01:22:38;;;;;;;79.60;15.52;;;;;;;10.31;100.00;99979.91;4985170;28;20074;-50
2022/10/28 01:26:01;;;;;;;64.38;15.00;;;;;;;10.41;100.00;99982.94;4974403;28;20674;-49
2022/10/28 01:29:08;;;;;;;35.50;12.80;;;;;;;10.77;100.00;99981.22;4924242;29;20061;-45
2022/10/28 01:32:08;;;;;;;118.95;17.38;;;;;;;10.54;100.00;99977.97;4952444;28;20498;-52
2022/10/28 01:35:03;;;;;;;60.58;14.50;;;;;;;10.63;100.00;99982.75;4957482;28;20573;-48
2022/10/28 01:38:02;;;;;;;54.47;13.50;;;;;;;10.63;100.00;99977.50;4932844;28;20446;-47
2022/10/28 01:41:13;;;;;;;45.90;12.68;;;;;;;10.66;100.00;99972.13;4933789;28;20145;-47
2022/10/28 01:44:12;;;;;;;40.55;12.73;;;;;;;11.03;100.00;99973.81;4944451;28;20047;-53
2022/10/28 01:47:01;;;;;;;117.53;16.50;;;;;;;10.71;100.00;99977.13;4949768;28;20081;-52
2022/10/28 01:49:56;;;;;;;126.30;16.90;;;;;;;10.68;100.00;99972.91;4953329;28;20209;-47
2022/10/28 01:52:42;;;;;;;59.97;14.45;;;;;;;10.70;100.00;99965.81;4957648;28;20147;-46
2022/10/28 01:55:34;;;;;;;107.60;17.77;;;;;;;10.70;100.00;99978.06;4953906;28;20055;-50
2022/10/28 01:58:26;;;;;;;89.13;18.50;;;;;;;10.91;100.00;99984.00;4957352;28;22172;-49
2022/10/28 02:01:12;;;;;;;118.88;18.65;;;;;;;10.77;100.00;99968.94;4952991;28;20043;-47
2022/10/28 02:03:57;;;;;;;122.18;18.85;;;;;;;10.50;100.00;99977.28;4955674;28;20043;-47
2022/10/28 02:06:46;;;;;;;109.30;19.45;;;;;;;10.40;100.00;99976.84;4991442;28;20061;-47
2022/10/28 02:09:49;;;;;;;101.50;20.65;;;;;;;10.53;100.00;99989.34;4976127;28;20058;-48
2022/10/28 02:12:36;;;;;;;171.15;23.55;;;;;;;10.54;100.00;99986.66;4976262;28;20568;-48
2022/10/28 02:15:27;;;;;;;84.47;19.70;;;;;;;10.41;100.00;99978.53;4997543;28;20121;-49
2022/10/28 02:18:18;;;;;;;138.27;22.50;;;;;;;10.45;100.00;99980.09;4991107;28;20039;-49
2022/10/28 02:21:17;;;;;;;62.67;18.58;;;;;;;10.53;100.00;99977.13;4994568;28;20069;-48
2022/10/28 02:24:12;;;;;;;107.78;21.20;;;;;;;10.44;100.00;99980.16;5002046;28;20042;-49
2022/10/28 02:27:11;;;;;;;79.28;19.35;;;;;;;10.86;100.00;99986.00;4993923;28;20746;-47
2022/10/28 02:30:05;;;;;;;125.18;21.65;;;;;;;10.93;100.00;99983.94;4996303;28;20046;-50
2022/10/28 02:32:59;;;;;;;186.95;22.15;;;;;;;10.61;100.00;99979.34;4973728;28;20122;-49
2022/10/28 02:35:49;;;;;;;73.07;18.33;;;;;;;10.83;100.00;99978.28;4975180;28;20069;-48
2022/10/28 02:38:38;;;;;;;86.88;19.30;;;;;;;10.83;100.00;99978.28;4978037;28;20181;-50
2022/10/28 02:41:29;;;;;;;94.85;18.50;;;;;;;10.80;100.00;99975.84;4997833;28;20088;-52
2022/10/28 02:44:18;;;;;;;81.13;18.58;;;;;;;11.17;100.00;99978.34;4996837;28;20042;-46
2022/10/28 02:47:09;;;;;;;41.60;16.35;;;;;;;11.03;100.00;99969.41;4990768;28;20053;-47
2022/10/28 02:50:03;;;;;;;218.38;21.42;;;;;;;10.84;100.00;99972.97;4966678;28;20147;-51
2022/10/28 02:52:52;;;;;;;113.60;17.15;;;;;;;10.53;100.00;99979.75;5004708;28;20050;-46
2022/10/28 02:55:42;;;;;;;42.45;14.48;;;;;;;10.70;100.00;99978.91;5000411;28;20042;-45
2022/10/28 02:58:28;;;;;;;126.68;16.98;;;;;;;10.99;100.00;99970.50;4979261;28;20134;-53
2022/10/28 03:01:13;;;;;;;61.47;13.88;;;;;;;11.11;100.00;99969.03;4993843;28;20129;-48
2022/10/28 03:03:57;;;;;;;133.85;16.42;;;;;;;10.90;100.00;99971.81;4968733;28;20042;-50
2022/10/28 03:06:42;;;;;;;56.47;13.73;;;;;;;10.91;100.00;99975.28;4979425;28;20046;-47
2022/10/28 03:09:26;;;;;;;73.80;14.57;;;;;;;10.70;100.00;99964.97;4986006;28;20153;-54
2022/10/28 03:12:11;;;;;;;48.70;13.73;;;;;;;11.24;100.00;99969.25;4987968;28;20213;-49
2022/10/28 03:14:57;;;;;;;86.85;15.15;;;;;;;11.29;100.00;99966.38;4980815;28;20049;-48
2022/10/28 03:17:42;;;;;;;77.90;13.63;;;;;;;10.91;100.00;99973.50;4991153;28;20042;-47
2022/10/28 03:20:26;;;;;;;97.93;15.50;;;;;;;11.13;100.00;99955.84;4991949;28;20089;-46
2022/10/28 03:23:10;;;;;;;49.90;12.48;;;;;;;11.02;100.00;99959.84;4993616;28;20081;-48
2022/10/28 03:25:55;;;;;;;29.67;11.80;;;;;;;10.85;100.00;99950.25;4978744;28;20041;-47
2022/10/28 03:28:40;;;;;;;56.50;12.88;;;;;;;10.75;100.00;99946.38;4991556;28;20169;-50
2022/10/28 03:31:25;;;;;;;54.70;12.38;;;;;;;10.79;100.00;99945.28;4981468;28;20117;-48
2022/10/28 03:34:10;;;;;;;108.90;15.45;;;;;;;10.53;100.00;99950.06;4990853;28;20050;-48
2022/10/28 03:36:54;;;;;;;83.25;14.80;;;;;;;10.35;100.00;99935.16;4989306;28;20056;-49
2022/10/28 03:39:39;;;;;;;48.13;13.75;;;;;;;10.62;100.00;99943.53;4976100;28;20038;-51
2022/10/28 03:42:24;;;;;;;64.53;13.18;;;;;;;10.86;100.00;99925.72;5002011;28;20448;-52
2022/10/28 03:45:09;;;;;;;44.97;12.55;;;;;;;10.63;100.00;99948.69;4970550;28;20497;-51
2022/10/28 03:47:53;;;;;;;94.97;14.93;;;;;;;10.61;100.00;99942.66;4995047;28;20049;-45
2022/10/28 03:50:38;;;;;;;137.35;16.52;;;;;;;10.42;100.00;99948.81;4995086;28;20074;-48
2022/10/28 03:53:22;;;;;;;50.95;12.85;;;;;;;10.67;100.00;99946.78;4980149;28;20062;-45
2022/10/28 03:56:07;;;;;;;99.97;14.63;;;;;;;10.75;100.00;99954.25;4978787;28;20401;-48
2022/10/28 03:58:52;;;;;;;57.80;13.70;;;;;;;10.86;100.00;99958.94;4989811;28;20050;-47
2022/10/28 04:01:37;;;;;;;133.40;16.02;;;;;;;11.04;100.00;99960.63;4998285;28;20154;-48
2022/10/28 04:04:21;;;;;;;58.72;12.45;;;;;;;10.97;100.00;99956.59;4956797;28;20109;-50
2022/10/28 04:07:07;;;;;;;26.58;10.88;;;;;;;11.09;100.00;99955.13;4976935;28;20132;-46
2022/10/28 04:09:52;;;;;;;92.18;14.27;;;;;;;10.99;100.00;99952.16;5001119;28;20904;-48
2022/10/28 04:12:36;;;;;;;94.68;13.63;;;;;;;10.84;100.00;99964.25;4999674;28;20169;-47
2022/10/28 04:15:20;;;;;;;32.47;11.68;;;;;;;10.78;100.00;99952.31;5001843;28;20076;-48
2022/10/28 04:18:05;;;;;;;40.05;11.18;;;;;;;10.52;100.00;99953.63;5001937;28;20515;-48
2022/10/28 04:20:50;;;;;;;26.92;10.90;;;;;;;10.57;100.00;99951.63;5004315;28;20054;-50
2022/10/28 04:23:39;;;;;;;53.20;12.23;;;;;;;10.28;100.00;99954.69;5002956;28;20052;-51
2022/10/28 04:26:32;;;;;;;64.65;11.27;;;;;;;10.20;100.00;99957.69;4977002;28;20042;-44
2022/10/28 04:29:20;;;;;;;64.82;13.57;;;;;;;11.01;100.00;99952.91;5004802;28;20058;-49
2022/10/28 04:32:04;;;;;;;30.55;10.95;;;;;;;10.32;100.00;99951.03;5002758;28;20045;-48
2022/10/28 04:34:49;;;;;;;26.15;11.85;;;;;;;10.15;100.00;99951.81;4988949;28;20092;-51
2022/10/28 04:37:34;;;;;;;32.85;12.75;;;;;;;10.13;100.00;99960.69;5004061;28;20516;-48
2022/10/28 04:40:23;;;;;;;34.80;12.10;;;;;;;10.02;100.00;99959.41;5003921;28;20054;-51
2022/10/28 04:43:10;;;;;;;24.17;12.20;;;;;;;10.38;100.00;99956.91;4989301;28;20125;-52
2022/10/28 04:45:55;;;;;;;32.65;11.70;;;;;;;10.15;100.00;99957.06;4991842;28;20043;-49
2022/10/28 04:48:39;;;;;;;48.80;12.80;;;;;;;10.03;100.00;99952.41;4995077;28;20073;-47
2022/10/28 04:51:24;;;;;;;56.83;13.00;;;;;;;10.01;100.00;99957.72;4992050;28;20046;-50
2022/10/28 04:54:08;;;;;;;163.20;17.25;;;;;;;9.97;100.00;99961.44;4990878;28;20042;-47
2022/10/28 04:56:54;;;;;;;67.97;13.57;;;;;;;9.98;100.00;99960.50;4995979;28;20038;-47
2022/10/28 04:59:38;;;;;;;44.63;11.95;;;;;;;10.00;100.00;99957.81;4994577;28;20431;-50
2022/10/28 05:02:23;;;;;;;37.65;12.05;;;;;;;9.93;100.00;99955.47;4989475;28;20504;-52
2022/10/28 05:05:13;;;;;;;80.95;13.75;;;;;;;9.91;100.00;99948.59;4964358;28;20206;-59
2022/10/28 05:07:58;;;;;;;56.55;12.38;;;;;;;9.88;100.00;99946.13;4992718;28;20094;-52
2022/10/28 05:10:44;;;;;;;53.75;12.90;;;;;;;10.00;100.00;99953.41;4995817;28;20054;-51
2022/10/28 05:13:28;;;;;;;54.00;12.35;;;;;;;9.88;100.00;99941.75;4989125;28;20046;-50
2022/10/28 05:16:13;;;;;;;35.95;10.88;;;;;;;9.95;100.00;99947.56;4991262;28;20060;-48
2022/10/28 05:18:58;;;;;;;50.70;11.27;;;;;;;9.96;100.00;99946.63;4978580;28;20054;-53
2022/10/28 05:21:42;;;;;;;39.20;10.93;;;;;;;9.97;100.00;99943.94;4992307;28;20401;-49
2022/10/28 05:24:27;;;;;;;44.80;11.70;;;;;;;9.89;100.00;99940.00;4974439;28;20061;-52
2022/10/28 05:27:11;;;;;;;32.50;10.98;;;;;;;9.93;100.00;99938.91;4997239;28;20137;-49
2022/10/28 05:29:56;;;;;;;28.15;10.30;;;;;;;9.90;100.00;99941.69;4990657;28;20470;-51
2022/10/28 05:32:40;;;;;;;25.27;10.30;;;;;;;9.89;100.00;99932.13;4991727;28;20121;-48
2022/10/28 05:35:25;;;;;;;123.60;14.93;;;;;;;9.84;100.00;99927.13;4990203;28;20050;-47
2022/10/28 05:38:09;;;;;;;184.80;16.38;;;;;;;9.93;100.00;99928.44;4976482;28;20406;-54
2022/10/28 05:40:54;;;;;;;190.90;16.20;;;;;;;9.94;100.00;99922.31;4990664;28;20073;-47
2022/10/28 05:43:39;;;;;;;80.18;12.82;;;;;;;9.94;100.00;99927.53;4996547;28;20049;-48
2022/10/28 05:46:23;;;;;;;115.85;15.40;;;;;;;9.94;100.00;99932.78;4992579;28;20088;-51
2022/10/28 05:49:08;;;;;;;106.80;14.98;;;;;;;9.94;100.00;99930.16;4977886;28;20045;-49
2022/10/28 05:51:53;;;;;;;99.20;14.40;;;;;;;10.00;100.00;99929.00;4968653;28;20064;-51
2022/10/28 05:54:37;;;;;;;102.13;13.80;;;;;;;10.07;100.00;99939.09;4996104;28;20054;-48
2022/10/28 05:57:22;;;;;;;200.93;18.25;;;;;;;9.99;100.00;99936.00;4990964;28;20089;-50
2022/10/28 06:00:07;;;;;;;134.55;16.50;;;;;;;9.97;100.00;99936.06;4989311;28;20046;-54
2022/10/28 06:03:10;;;;;;;145.52;17.85;;;;;;;9.94;100.00;99936.22;4988308;28;20137;-54
2022/10/28 06:05:56;;;;;;;69.32;13.98;;;;;;;9.91;100.00;99938.97;4991363;28;20121;-49
2022/10/28 06:08:41;;;;;;;105.15;15.73;;;;;;;10.01;100.00;99951.63;4994097;28;20046;-52
2022/10/28 06:11:25;;;;;;;49.90;14.23;;;;;;;10.03;100.00;99944.56;4991118;28;20069;-54
2022/10/28 06:14:10;;;;;;;74.88;15.20;;;;;;;10.06;100.00;99949.66;4991369;28;20158;-50
2022/10/28 06:16:58;;;;;;;41.53;13.73;;;;;;;10.05;100.00;99959.28;4993166;28;20049;-52
2022/10/28 06:19:43;;;;;;;60.78;13.45;;;;;;;10.02;100.00;99964.66;4980847;28;20042;-50
2022/10/28 06:22:28;;;;;;;93.80;15.32;;;;;;;10.07;100.00;99960.06;4991411;28;20058;-55
2022/10/28 06:25:17;;;;;;;102.78;15.68;;;;;;;10.11;100.00;99963.38;4994586;28;20054;-49
2022/10/28 06:28:02;;;;;;;88.93;15.82;;;;;;;10.10;100.00;99954.66;4975963;28;20100;-50
2022/10/28 06:30:47;;;;;;;91.70;14.55;;;;;;;10.15;100.00;99961.47;4975723;28;20050;-51
2022/10/28 06:33:36;;;;;;;105.82;16.42;;;;;;;10.17;100.00;99949.13;4972986;28;20074;-51
2022/10/28 06:36:21;;;;;;;144.18;18.40;;;;;;;10.05;100.00;99950.59;4992005;28;20306;-51
2022/10/28 06:39:06;;;;;;;87.57;14.75;;;;;;;10.15;100.00;99948.38;4980084;28;20046;-52
2022/10/28 06:41:50;;;;;;;209.45;19.13;;;;;;;10.02;100.00;99964.66;4991938;28;20137;-53
2022/10/28 06:44:45;;;;;;;257.48;21.60;;;;;;;10.11;100.00;99968.63;4996254;28;20119;-52
2022/10/28 06:47:30;;;;;;;188.60;19.77;;;;;;;10.16;100.00;99978.88;4994757;28;20519;-55
2022/10/28 06:50:15;;;;;;;186.98;19.98;;;;;;;10.20;100.00;99977.81;4991126;28;20184;-54
2022/10/28 06:53:00;;;;;;;47.97;14.80;;;;;;;10.31;100.00;99988.63;4996872;28;20046;-53
2022/10/28 06:55:56;;;;;;;98.65;17.88;;;;;;;10.27;100.00;99992.31;4996082;28;20046;-54
2022/10/28 06:58:41;;;;;;;72.32;17.90;;;;;;;10.19;100.00;99994.44;4992966;28;20052;-53
2022/10/28 07:01:28;;;;;;;72.68;17.27;;;;;;;10.30;100.00;100004.38;4993177;28;20042;-55
2022/10/28 07:04:13;;;;;;;66.15;17.35;;;;;;;10.36;100.00;99993.63;4978887;28;20062;-54
2022/10/28 07:06:58;;;;;;;83.18;17.77;;;;;;;10.29;100.00;99993.09;4995460;28;20051;-53
2022/10/28 07:09:43;;;;;;;116.38;18.75;;;;;;;10.22;100.00;99991.66;4996092;28;20049;-48
2022/10/28 07:12:28;;;;;;;148.00;19.15;;;;;;;10.22;100.00;99995.13;5003346;28;20434;-50
2022/10/28 07:15:13;;;;;;;80.55;18.23;;;;;;;10.21;100.00;100001.31;4998891;28;20042;-48
2022/10/28 07:17:58;;;;;;;62.55;18.13;;;;;;;10.26;100.00;100005.47;4998561;28;20169;-52
2022/10/28 07:20:43;;;;;;;103.85;17.88;;;;;;;10.18;100.00;100008.47;4996824;28;20158;-51
2022/10/28 07:23:31;;;;;;;62.60;18.08;;;;;;;10.18;100.00;100008.47;4991802;28;20145;-49
2022/10/28 07:26:15;;;;;;;60.53;18.15;;;;;;;10.26;100.00;100005.47;4998327;28;20042;-53
2022/10/28 07:28:59;;;;;;;53.80;18.15;;;;;;;10.35;100.00;100005.03;4979490;28;20045;-50
2022/10/28 07:31:44;;;;;;;99.90;21.27;;;;;;;10.42;100.00;100003.81;4994950;28;20046;-49
2022/10/28 07:34:29;;;;;;;58.85;24.77;;;;;;;10.43;100.00;100005.50;4985880;28;20145;-48
2022/10/28 07:37:14;;;;;;;59.50;24.45;;;;;;;10.33;100.00;100009.50;4991146;28;20208;-51
2022/10/28 07:39:59;;;;;;;107.70;24.73;;;;;;;10.44;100.00;100003.75;4977406;28;20053;-48
2022/10/28 07:42:43;;;;;;;290.20;28.63;;;;;;;10.29;100.00;100000.09;4995205;28;20120;-51
2022/10/28 07:45:28;;;;;;;96.25;23.50;;;;;;;10.25;100.00;99995.94;4975971;28;20046;-50
2022/10/28 07:48:13;;;;;;;53.42;20.55;;;;;;;10.26;100.00;100003.72;4996182;28;20038;-54
2022/10/28 07:51:02;;;;;;;111.15;21.58;;;;;;;10.26;100.00;99995.84;4994646;28;20061;-52
2022/10/28 07:53:47;;;;;;;63.70;18.05;;;;;;;10.34;100.00;100000.72;4995863;28;20077;-51
2022/10/28 07:56:32;;;;;;;57.15;17.75;;;;;;;10.50;100.00;100002.63;4977237;28;20489;-50
2022/10/28 07:59:19;;;;;;;71.50;18.95;;;;;;;10.46;100.00;100001.91;4991744;28;20034;-51
2022/10/28 08:02:04;;;;;;;50.30;19.38;;;;;;;10.34;100.00;100008.56;4991674;28;20549;-55
2022/10/28 08:04:49;;;;;;;81.43;22.27;;;;;;;10.27;100.00;100007.16;4991581;28;20066;-52
2022/10/28 08:07:34;;;;;;;108.45;23.25;;;;;;;10.31;100.00;100009.59;4991780;28;20057;-52
2022/10/28 08:10:18;;;;;;;85.45;22.85;;;;;;;10.35;100.00;100012.88;4991493;28;20148;-50
2022/10/28 08:13:05;;;;;;;81.55;22.08;;;;;;;10.45;100.00;100011.53;4983198;28;20038;-53
2022/10/28 08:15:53;;;;;;;47.85;23.23;;;;;;;10.55;100.00;100004.09;4990283;28;20490;-52
2022/10/28 08:18:39;;;;;;;49.25;22.23;;;;;;;10.61;100.00;100004.72;4997353;28;20041;-53
2022/10/28 08:21:25;;;;;;;45.22;21.58;;;;;;;10.61;100.00;100015.22;4981529;28;20062;-51
2022/10/28 08:24:10;;;;;;;110.10;23.15;;;;;;;10.43;100.00;100021.22;4995759;28;20503;-53
2022/10/28 08:26:55;;;;;;;63.75;22.48;;;;;;;10.52;100.00;100004.25;4994037;28;20076;-52
2022/10/28 08:29:39;;;;;;;50.72;23.55;;;;;;;10.50;100.00;100010.47;4995725;28;20050;-53
2022/10/28 08:32:24;;;;;;;64.55;23.13;;;;;;;10.56;100.00;100013.66;4995450;28;20129;-51
2022/10/28 08:35:09;;;;;;;46.45;23.50;;;;;;;10.55;100.00;100008.47;4994354;28;20046;-54
2022/10/28 08:37:53;;;;;;;47.95;22.40;;;;;;;10.57;100.00;100004.88;4991097;28;20065;-55
2022/10/28 08:40:50;;;;;;;53.20;22.30;;;;;;;10.64;100.00;100013.28;4987113;28;20125;-55
2022/10/28 08:44:08;;;;;;;40.83;21.27;;;;;;;10.64;100.00;100017.69;4989385;28;20096;-48
2022/10/28 08:47:25;;;;;;;67.22;23.25;;;;;;;10.57;100.00;100007.50;4992594;28;20073;-52
2022/10/28 08:50:13;;;;;;;38.20;20.23;;;;;;;10.71;100.00;100011.19;4992558;28;20101;-55
2022/10/28 08:53:22;;;;;;;36.80;20.75;;;;;;;10.72;100.00;100007.69;4992392;28;20115;-48
2022/10/28 08:56:15;;;;;;;33.85;18.08;;;;;;;10.75;100.00;100015.38;4992897;28;20477;-52
2022/10/28 08:59:03;;;;;;;33.45;18.80;;;;;;;10.79;100.00;100016.06;4990447;28;20057;-51
2022/10/28 09:01:53;;;;;;;33.88;18.00;;;;;;;10.80;100.00;100010.78;4973834;28;20169;-52
2022/10/28 09:04:41;;;;;;;39.13;20.00;;;;;;;10.81;100.00;100009.84;4988508;28;20049;-51
2022/10/28 09:07:26;;;;;;;32.03;16.95;;;;;;;10.61;100.00;100010.81;4989567;28;20417;-48
2022/10/28 09:10:14;;;;;;;25.05;14.45;;;;;;;10.84;100.00;100008.81;4990635;28;20061;-52
2022/10/28 09:13:10;;;;;;;23.08;14.30;;;;;;;10.83;100.00;100002.75;4991968;28;20050;-49
2022/10/28 09:16:03;;;;;;;27.25;14.55;;;;;;;10.74;100.00;100013.66;4990089;28;20409;-50
2022/10/28 09:18:53;;;;;;;29.08;15.85;;;;;;;11.38;100.00;99996.50;4988265;28;20281;-50
2022/10/28 09:21:47;;;;;;;32.50;15.63;;;;;;;11.21;100.00;99993.00;4990341;28;20049;-48
2022/10/28 09:24:47;;;;;;;26.80;15.13;;;;;;;10.90;100.00;99994.56;4992166;28;20364;-52
2022/10/28 09:27:41;;;;;;;29.95;16.13;;;;;;;10.99;100.00;99999.34;4981753;28;20112;-49
2022/10/28 09:30:29;;;;;;;28.73;16.83;;;;;;;10.93;100.00;99994.41;4976456;28;20127;-50
2022/10/28 09:33:26;;;;;;;34.38;17.38;;;;;;;10.89;100.00;100005.97;4986892;28;20077;-53
2022/10/28 09:36:15;;;;;;;46.38;20.58;;;;;;;11.39;100.00;99998.22;4999120;28;20053;-51
2022/10/28 09:39:03;;;;;;;40.17;19.95;;;;;;;11.04;100.00;100001.72;4991936;28;20042;-54
2022/10/28 09:41:49;;;;;;;35.70;20.02;;;;;;;10.82;100.00;100005.44;4985032;28;20080;-50
2022/10/28 09:44:50;;;;;;;37.58;20.83;;;;;;;10.93;100.00;100011.00;4994523;28;20050;-53
2022/10/28 09:47:40;;;;;;;42.90;21.13;;;;;;;10.94;100.00;100006.59;4987956;28;20042;-52
2022/10/28 09:50:29;;;;;;;51.30;23.63;;;;;;;12.02;100.00;100007.13;4985787;28;20466;-55
2022/10/28 09:53:23;;;;;;;44.22;21.55;;;;;;;11.29;100.00;100017.03;4989280;28;20054;-55
2022/10/28 09:56:08;;;;;;;36.40;21.45;;;;;;;10.99;100.00;100020.31;4986533;28;20080;-56
2022/10/28 09:58:56;;;;;;;41.83;21.83;;;;;;;10.91;100.00;100027.72;4988622;28;20080;-49
2022/10/28 10:01:44;;;;;;;42.75;21.88;;;;;;;10.92;100.00;100034.66;4982838;28;20042;-48
2022/10/28 10:04:34;;;;;;;40.47;20.83;;;;;;;11.13;100.00;100039.75;4972671;28;20490;-49
2022/10/28 10:07:29;;;;;;;47.78;23.27;;;;;;;11.21;100.00;100037.59;4995612;28;20470;-53
2022/10/28 10:10:43;;;;;;;43.75;21.88;;;;;;;11.35;100.00;100034.25;4991862;28;20130;-51
2022/10/28 10:13:32;;;;;;;50.78;22.45;;;;;;;11.23;100.00;100033.09;4988897;28;20050;-51
2022/10/28 10:16:23;;;;;;;39.92;20.75;;;;;;;11.11;100.00;100028.50;4975105;28;20078;-54
2022/10/28 10:19:10;;;;;;;42.00;20.90;;;;;;;11.05;100.00;100019.19;4987735;28;20046;-49
2022/10/28 10:21:54;;;;;;;47.22;21.02;;;;;;;11.07;100.00;100018.16;4987263;28;20303;-52
2022/10/28 10:24:44;;;;;;;38.58;19.33;;;;;;;11.09;100.00;100024.19;4959196;28;20041;-52
2022/10/28 10:27:30;;;;;;;33.55;17.60;;;;;;;11.17;100.00;100025.56;5001753;28;20084;-51
2022/10/28 10:30:21;;;;;;;46.85;20.70;;;;;;;11.21;100.00;100035.81;4991005;28;20042;-52
2022/10/28 10:33:23;;;;;;;43.23;20.93;;;;;;;11.14;100.00;100028.34;4995679;28;20481;-49
2022/10/28 10:36:20;;;;;;;;;;;;;;;11.17;100.00;100031.66;4980527;28;20070;-53
2022/10/28 10:39:21;;;;;;;50.13;22.98;;;;;;;11.15;100.00;100025.63;4996743;28;19921;-49
2022/10/28 10:42:16;;;;;;;54.47;25.40;;;;;;;11.03;100.00;100028.88;4980491;28;20138;-53
2022/10/28 10:45:18;;;;;;;52.42;23.80;;;;;;;11.01;100.00;100028.97;4995888;28;20035;-46
2022/10/28 10:48:13;;;;;;;45.97;24.13;;;;;;;11.02;100.00;100022.78;4995586;28;20056;-48
2022/10/28 10:51:23;;;;;;;68.72;24.05;;;;;;;10.98;100.00;100017.78;4998777;28;20058;-52
2022/10/28 10:54:14;;;;;;;44.55;22.65;;;;;;;11.04;100.00;100014.84;4996765;28;20126;-47
2022/10/28 10:57:25;;;;;;;52.53;23.80;;;;;;;10.98;100.00;100016.00;4994560;28;20054;-52
2022/10/28 11:00:17;;;;;;;60.95;24.98;;;;;;;11.02;100.00;100012.28;4990934;28;20050;-49
2022/10/28 11:03:04;;;;;;;44.65;21.15;;;;;;;11.08;100.00;100006.72;4993259;28;20050;-46
2022/10/28 11:05:57;;;;;;;47.13;21.83;;;;;;;11.02;100.00;100006.19;4994633;28;20361;-52
2022/10/28 11:08:43;;;;;;;52.80;22.13;;;;;;;11.00;100.00;100000.19;4995028;28;20128;-48
2022/10/28 11:11:37;;;;;;;65.38;23.60;;;;;;;10.98;100.00;99997.66;4993610;28;20264;-49
2022/10/28 11:14:23;;;;;;;58.95;23.48;;;;;;;10.92;100.00;99992.69;4992980;28;20112;-50
2022/10/28 11:17:22;;;;;;;45.42;21.23;;;;;;;10.89;100.00;99980.59;4987153;28;20493;-48
2022/10/28 11:20:53;;;;;;;47.95;22.30;;;;;;;11.02;100.00;99980.81;4998478;28;20548;-49
2022/10/28 11:24:18;;;;;;;48.60;23.33;;;;;;;11.04;100.00;99971.13;4922442;29;20487;-51
2022/10/28 11:27:08;;;;;;;43.25;20.70;;;;;;;11.32;100.00;99988.06;4926526;29;20055;-50
2022/10/28 11:29:54;;;;;;;44.15;21.48;;;;;;;11.07;100.00;99991.06;4927144;29;20052;-52
2022/10/28 11:32:57;;;;;;;45.40;21.90;;;;;;;11.03;100.00;99985.13;4927671;29;20050;-50
2022/10/28 11:35:51;;;;;;;51.20;22.33;;;;;;;10.93;100.00;99984.78;4927752;29;20146;-53
2022/10/28 11:38:55;;;;;;;44.45;21.20;;;;;;;11.06;100.00;99971.03;4924967;29;20178;-53
2022/10/28 11:42:02;;;;;;;51.95;22.17;;;;;;;10.89;100.00;99983.22;4927327;29;20044;-51
2022/10/28 11:44:54;;;;;;;42.75;19.67;;;;;;;11.08;100.00;99977.06;4927386;29;20131;-50
2022/10/28 11:47:47;;;;;;;40.90;19.52;;;;;;;11.10;100.00;99975.19;4914142;29;20194;-49
2022/10/28 11:50:50;;;;;;;34.55;16.02;;;;;;;11.07;100.00;99964.84;4914323;29;20060;-50
2022/10/28 11:53:56;;;;;;;38.50;17.10;;;;;;;11.17;100.00;99966.09;4928542;29;20047;-49
2022/10/28 11:57:08;;;;;;;41.40;18.45;;;;;;;11.36;100.00;99969.53;4944400;28;20137;-48
2022/10/28 12:00:20;;;;;;;44.85;23.25;;;;;;;11.36;100.00;99965.09;4994717;28;20042;-51
2022/10/28 12:03:26;;;;;;;44.92;20.17;;;;;;;11.37;100.00;99960.72;4986760;28;20080;-53
2022/10/28 12:06:19;;;;;;;45.20;19.88;;;;;;;11.13;100.00;99950.59;4993025;28;20176;-48
2022/10/28 12:09:14;;;;;;;38.13;18.92;;;;;;;11.32;100.00;99958.34;4990595;28;20121;-50
2022/10/28 12:12:19;;;;;;;41.88;20.60;;;;;;;11.36;100.00;99956.41;4997454;28;20038;-52
2022/10/28 12:15:13;;;;;;;42.97;20.90;;;;;;;11.45;100.00;99948.03;4990861;28;20046;-53
2022/10/28 12:18:01;;;;;;;43.95;20.35;;;;;;;11.51;100.00;99946.84;4990879;28;20042;-50
2022/10/28 12:20:58;;;;;;;42.28;21.08;;;;;;;11.42;100.00;99943.81;4979866;28;20125;-51
2022/10/28 12:23:45;;;;;;;41.97;18.27;;;;;;;11.27;100.00;99941.97;4990218;28;20046;-53
2022/10/28 12:26:46;;;;;;;43.17;20.40;;;;;;;11.30;100.00;99939.19;4998298;28;20075;-50
2022/10/28 12:29:43;;;;;;;35.47;17.98;;;;;;;11.18;100.00;99943.34;4992258;28;20042;-48
2022/10/28 12:32:33;;;;;;;33.88;16.15;;;;;;;11.33;100.00;99953.00;4996323;28;20054;-52
2022/10/28 12:35:32;;;;;;;31.50;15.93;;;;;;;11.27;100.00;99963.81;4994736;28;20048;-50
2022/10/28 12:38:35;;;;;;;31.50;14.77;;;;;;;11.37;100.00;99958.94;4993501;28;20135;-54
2022/10/28 12:41:26;;;;;;;;;;;;;;;11.55;100.00;99958.88;4994632;28;20401;-50
2022/10/28 12:44:15;;;;;;;41.88;16.90;;;;;;;11.41;100.00;99949.13;4998837;28;20032;-47
2022/10/28 12:47:18;;;;;;;36.75;17.42;;;;;;;11.46;100.00;99947.97;4993725;28;20042;-50
2022/10/28 12:50:24;;;;;;;48.45;19.67;;;;;;;11.27;100.00;99944.59;4990537;28;20053;-46